sensor_id;sensor_type;location;lat;lon;timestamp;pressure;altitude;pressure_sealevel;temperature;humidity
35443;BME280;21561;55.654;37.592;2022-11-20T00:01:17;99351.81;;;-2.42;100.00
35443;BME280;21561;55.654;37.592;2022-11-20T00:03:45;99339.94;;;-2.43;100.00
35443;BME280;21561;55.654;37.592;2022-11-20T00:06:14;99345.16;;;-2.40;100.00
35443;BME280;21561;55.654;37.592;2022-11-20T00:08:42;99348.56;;;-2.40;100.00
35443;BME280;21561;55.654;37.592;2022-11-20T00:11:11;99341.78;;;-2.39;100.00
35443;BME280;21561;55.654;37.592;2022-11-20T00:13:46;99348.72;;;-2.35;100.00
35443;BME280;21561;55.654;37.592;2022-11-20T00:16:15;99345.25;;;-2.37;100.00
35443;BME280;21561;55.654;37.592;2022-11-20T00:18:42;99351.97;;;-2.39;100.00
35443;BME280;21561;55.654;37.592;2022-11-20T00:21:12;99346.88;;;-2.39;100.00
35443;BME280;21561;55.654;37.592;2022-11-20T00:23:40;99348.50;;;-2.41;100.00
35443;BME280;21561;55.654;37.592;2022-11-20T00:26:09;99353.56;;;-2.41;100.00
35443;BME280;21561;55.654;37.592;2022-11-20T00:28:36;99352.72;;;-2.42;100.00
35443;BME280;21561;55.654;37.592;2022-11-20T00:31:21;99349.69;;;-2.33;100.00
35443;BME280;21561;55.654;37.592;2022-11-20T00:33:48;99344.16;;;-2.44;100.00
35443;BME280;21561;55.654;37.592;2022-11-20T00:36:21;99351.97;;;-2.39;100.00
35443;BME280;21561;55.654;37.592;2022-11-20T00:38:52;99352.88;;;-2.37;100.00
35443;BME280;21561;55.654;37.592;2022-11-20T00:41:20;99348.50;;;-2.41;100.00
35443;BME280;21561;55.654;37.592;2022-11-20T00:43:47;99350.91;;;-2.44;100.00
35443;BME280;21561;55.654;37.592;2022-11-20T00:46:16;99355.31;;;-2.40;100.00
35443;BME280;21561;55.654;37.592;2022-11-20T00:48:44;99355.97;;;-2.44;100.00
35443;BME280;21561;55.654;37.592;2022-11-20T00:51:14;99345.81;;;-2.44;100.00
35443;BME280;21561;55.654;37.592;2022-11-20T00:53:42;99357.59;;;-2.46;100.00
35443;BME280;21561;55.654;37.592;2022-11-20T00:56:14;99351.78;;;-2.44;100.00
35443;BME280;21561;55.654;37.592;2022-11-20T00:58:42;99349.84;;;-2.50;100.00
35443;BME280;21561;55.654;37.592;2022-11-20T01:01:15;99350.81;;;-2.47;100.00
35443;BME280;21561;55.654;37.592;2022-11-20T01:03:44;99351.47;;;-2.52;100.00
35443;BME280;21561;55.654;37.592;2022-11-20T01:06:17;99359.00;;;-2.53;100.00
35443;BME280;21561;55.654;37.592;2022-11-20T01:08:45;99361.38;;;-2.58;100.00
35443;BME280;21561;55.654;37.592;2022-11-20T01:11:17;99355.56;;;-2.55;100.00
35443;BME280;21561;55.654;37.592;2022-11-20T01:13:46;99352.78;;;-2.61;100.00
35443;BME280;21561;55.654;37.592;2022-11-20T01:16:17;99358.00;;;-2.58;100.00
35443;BME280;21561;55.654;37.592;2022-11-20T01:18:48;99359.41;;;-2.65;100.00
35443;BME280;21561;55.654;37.592;2022-11-20T01:21:17;99355.13;;;-2.66;100.00
35443;BME280;21561;55.654;37.592;2022-11-20T01:23:45;99356.59;;;-2.71;100.00
35443;BME280;21561;55.654;37.592;2022-11-20T01:26:18;99358.41;;;-2.69;100.00
35443;BME280;21561;55.654;37.592;2022-11-20T01:28:45;99358.22;;;-2.73;100.00
35443;BME280;21561;55.654;37.592;2022-11-20T01:31:16;99359.13;;;-2.71;100.00
35443;BME280;21561;55.654;37.592;2022-11-20T01:33:44;99360.66;;;-2.76;100.00
35443;BME280;21561;55.654;37.592;2022-11-20T01:36:13;99365.72;;;-2.76;100.00
35443;BME280;21561;55.654;37.592;2022-11-20T01:38:40;99359.66;;;-2.80;100.00
35443;BME280;21561;55.654;37.592;2022-11-20T01:41:08;99362.91;;;-2.82;100.00
35443;BME280;21561;55.654;37.592;2022-11-20T01:43:35;99357.84;;;-2.82;100.00
35443;BME280;21561;55.654;37.592;2022-11-20T01:48:52;99372.28;;;-2.81;100.00
35443;BME280;21561;55.654;37.592;2022-11-20T01:51:26;99374.00;;;-2.80;100.00
35443;BME280;21561;55.654;37.592;2022-11-20T01:53:57;99370.53;;;-2.82;100.00
35443;BME280;21561;55.654;37.592;2022-11-20T01:56:26;99385.63;;;-2.85;100.00
35443;BME280;21561;55.654;37.592;2022-11-20T01:58:56;99384.06;;;-2.83;100.00
35443;BME280;21561;55.654;37.592;2022-11-20T02:01:25;99385.53;;;-2.89;100.00
35443;BME280;21561;55.654;37.592;2022-11-20T02:03:52;99392.31;;;-2.88;100.00
35443;BME280;21561;55.654;37.592;2022-11-20T02:06:24;99403.53;;;-2.82;100.00
35443;BME280;21561;55.654;37.592;2022-11-20T02:08:52;99398.31;;;-2.85;100.00
35443;BME280;21561;55.654;37.592;2022-11-20T02:11:19;99396.63;;;-2.86;100.00
35443;BME280;21561;55.654;37.592;2022-11-20T02:13:46;99397.41;;;-2.88;100.00
35443;BME280;21561;55.654;37.592;2022-11-20T02:16:25;99401.00;;;-2.82;100.00
35443;BME280;21561;55.654;37.592;2022-11-20T02:18:54;99399.00;;;-2.90;100.00
35443;BME280;21561;55.654;37.592;2022-11-20T02:21:28;99405.84;;;-2.89;100.00
35443;BME280;21561;55.654;37.592;2022-11-20T02:24:11;99404.94;;;-2.89;100.00
35443;BME280;21561;55.654;37.592;2022-11-20T02:26:52;99415.00;;;-2.92;100.00
35443;BME280;21561;55.654;37.592;2022-11-20T02:32:06;99415.47;;;-3.01;100.00
35443;BME280;21561;55.654;37.592;2022-11-20T02:34:33;99416.31;;;-3.00;100.00
35443;BME280;21561;55.654;37.592;2022-11-20T02:36:59;99422.16;;;-3.03;100.00
35443;BME280;21561;55.654;37.592;2022-11-20T02:39:27;99424.75;;;-3.01;100.00
35443;BME280;21561;55.654;37.592;2022-11-20T02:41:55;99414.53;;;-3.03;100.00
35443;BME280;21561;55.654;37.592;2022-11-20T02:44:22;99417.06;;;-3.03;100.00
35443;BME280;21561;55.654;37.592;2022-11-20T02:46:49;99417.06;;;-3.03;100.00
35443;BME280;21561;55.654;37.592;2022-11-20T02:49:15;99417.06;;;-3.03;100.00
35443;BME280;21561;55.654;37.592;2022-11-20T02:51:43;99419.63;;;-3.03;100.00
35443;BME280;21561;55.654;37.592;2022-11-20T02:54:10;99426.41;;;-3.02;100.00
35443;BME280;21561;55.654;37.592;2022-11-20T02:56:38;99424.00;;;-2.99;100.00
35443;BME280;21561;55.654;37.592;2022-11-20T02:59:05;99417.19;;;-3.00;100.00
35443;BME280;21561;55.654;37.592;2022-11-20T03:01:33;99415.47;;;-3.01;100.00
35443;BME280;21561;55.654;37.592;2022-11-20T03:04:00;99423.88;;;-3.02;100.00
35443;BME280;21561;55.654;37.592;2022-11-20T03:06:27;99417.06;;;-3.03;100.00
35443;BME280;21561;55.654;37.592;2022-11-20T03:08:53;99416.25;;;-3.02;100.00
35443;BME280;21561;55.654;37.592;2022-11-20T03:11:20;99417.94;;;-3.02;100.00
35443;BME280;21561;55.654;37.592;2022-11-20T03:13:47;99418.78;;;-3.02;100.00
35443;BME280;21561;55.654;37.592;2022-11-20T03:16:19;99432.56;;;-2.97;100.00
35443;BME280;21561;55.654;37.592;2022-11-20T03:18:46;99438.16;;;-3.04;100.00
35443;BME280;21561;55.654;37.592;2022-11-20T03:21:14;99437.25;;;-3.06;100.00
35443;BME280;21561;55.654;37.592;2022-11-20T03:23:41;99434.47;;;-3.11;100.00
35443;BME280;21561;55.654;37.592;2022-11-20T03:28:38;99440.31;;;-3.13;100.00
35443;BME280;21561;55.654;37.592;2022-11-20T03:31:13;99426.28;;;-3.05;100.00
35443;BME280;21561;55.654;37.592;2022-11-20T03:33:41;99441.25;;;-3.11;100.00
35443;BME280;21561;55.654;37.592;2022-11-20T03:36:11;99425.22;;;-3.10;100.00
35443;BME280;21561;55.654;37.592;2022-11-20T03:38:38;99438.69;;;-3.11;100.00
35443;BME280;21561;55.654;37.592;2022-11-20T03:41:17;99435.50;;;-3.07;100.00
35443;BME280;21561;55.654;37.592;2022-11-20T03:43:49;99436.38;;;-3.07;100.00
35443;BME280;21561;55.654;37.592;2022-11-20T03:46:16;99434.94;;;-3.00;100.00
35443;BME280;21561;55.654;37.592;2022-11-20T03:48:42;99439.31;;;-3.17;100.00
35443;BME280;21561;55.654;37.592;2022-11-20T03:51:19;99442.69;;;-3.16;100.00
35443;BME280;21561;55.654;37.592;2022-11-20T03:53:47;99441.78;;;-3.18;100.00
35443;BME280;21561;55.654;37.592;2022-11-20T03:56:16;99447.00;;;-3.15;100.00
35443;BME280;21561;55.654;37.592;2022-11-20T03:58:43;99450.31;;;-3.16;100.00
35443;BME280;21561;55.654;37.592;2022-11-20T04:01:13;99452.06;;;-3.15;100.00
35443;BME280;21561;55.654;37.592;2022-11-20T04:03:41;99457.94;;;-3.16;100.00
35443;BME280;21561;55.654;37.592;2022-11-20T04:06:11;99454.53;;;-3.17;100.00
35443;BME280;21561;55.654;37.592;2022-11-20T04:08:39;99461.16;;;-3.20;100.00
35443;BME280;21561;55.654;37.592;2022-11-20T04:11:18;99462.22;;;-3.15;100.00
35443;BME280;21561;55.654;37.592;2022-11-20T04:13:47;99463.69;;;-3.20;100.00
35443;BME280;21561;55.654;37.592;2022-11-20T04:16:14;99461.22;;;-3.19;100.00
35443;BME280;21561;55.654;37.592;2022-11-20T04:18:42;99470.56;;;-3.18;100.00
35443;BME280;21561;55.654;37.592;2022-11-20T04:21:10;99471.56;;;-3.14;100.00
35443;BME280;21561;55.654;37.592;2022-11-20T04:23:38;99475.84;;;-3.13;100.00
35443;BME280;21561;55.654;37.592;2022-11-20T04:26:07;99473.31;;;-3.13;100.00
35443;BME280;21561;55.654;37.592;2022-11-20T04:28:35;99484.25;;;-3.14;100.00
35443;BME280;21561;55.654;37.592;2022-11-20T04:31:05;99481.72;;;-3.14;100.00
35443;BME280;21561;55.654;37.592;2022-11-20T04:33:33;99478.16;;;-3.18;100.00
35443;BME280;21561;55.654;37.592;2022-11-20T04:36:05;99478.25;;;-3.16;100.00
35443;BME280;21561;55.654;37.592;2022-11-20T04:38:32;99483.19;;;-3.19;100.00
35443;BME280;21561;55.654;37.592;2022-11-20T04:41:14;99491.22;;;-3.10;100.00
35443;BME280;21561;55.654;37.592;2022-11-20T04:43:46;99492.53;;;-3.18;100.00
35443;BME280;21561;55.654;37.592;2022-11-20T04:46:13;99499.63;;;-3.11;100.00
35443;BME280;21561;55.654;37.592;2022-11-20T04:48:40;99506.75;;;-3.22;100.00
35443;BME280;21561;55.654;37.592;2022-11-20T04:51:07;99518.66;;;-3.21;100.00
35443;BME280;21561;55.654;37.592;2022-11-20T04:53:34;99511.13;;;-3.19;100.00
35443;BME280;21561;55.654;37.592;2022-11-20T04:56:01;99516.31;;;-3.16;100.00
35443;BME280;21561;55.654;37.592;2022-11-20T04:58:29;99517.19;;;-3.16;100.00
35443;BME280;21561;55.654;37.592;2022-11-20T05:03:41;99523.94;;;-3.16;100.00
35443;BME280;21561;55.654;37.592;2022-11-20T05:06:13;99521.38;;;-3.16;100.00
35443;BME280;21561;55.654;37.592;2022-11-20T05:08:41;99519.94;;;-3.11;100.00
35443;BME280;21561;55.654;37.592;2022-11-20T05:11:10;99522.75;;;-3.05;100.00
35443;BME280;21561;55.654;37.592;2022-11-20T05:13:38;99526.44;;;-2.98;100.00
35443;BME280;21561;55.654;37.592;2022-11-20T05:16:07;99529.72;;;-3.01;100.00
35443;BME280;21561;55.654;37.592;2022-11-20T05:18:35;99535.47;;;-3.05;100.00
35443;BME280;21561;55.654;37.592;2022-11-20T05:21:03;99525.22;;;-3.07;100.00
35443;BME280;21561;55.654;37.592;2022-11-20T05:23:30;99535.47;;;-3.05;100.00
35443;BME280;21561;55.654;37.592;2022-11-20T05:25:58;99541.41;;;-3.04;100.00
35443;BME280;21561;55.654;37.592;2022-11-20T05:28:27;99543.94;;;-3.04;100.00
35443;BME280;21561;55.654;37.592;2022-11-20T05:30:54;99550.06;;;-2.81;100.00
35443;BME280;21561;55.654;37.592;2022-11-20T05:33:21;99545.75;;;-2.82;100.00
35443;BME280;21561;55.654;37.592;2022-11-20T05:35:48;99546.44;;;-2.86;100.00
35443;BME280;21561;55.654;37.592;2022-11-20T05:38:15;99555.69;;;-2.69;100.00
35443;BME280;21561;55.654;37.592;2022-11-20T05:40:42;99562.47;;;-2.68;99.54
35443;BME280;21561;55.654;37.592;2022-11-20T05:43:09;99563.06;;;-2.74;99.66
35443;BME280;21561;55.654;37.592;2022-11-20T05:45:35;99563.94;;;-2.73;100.00
35443;BME280;21561;55.654;37.592;2022-11-20T05:48:03;99569.16;;;-2.70;100.00
35443;BME280;21561;55.654;37.592;2022-11-20T05:50:30;99567.16;;;-2.77;99.89
35443;BME280;21561;55.654;37.592;2022-11-20T05:52:59;99580.63;;;-2.78;100.00
35443;BME280;21561;55.654;37.592;2022-11-20T05:55:27;99583.69;;;-2.85;100.00
35443;BME280;21561;55.654;37.592;2022-11-20T05:57:54;99587.06;;;-2.86;100.00
35443;BME280;21561;55.654;37.592;2022-11-20T06:00:22;99589.69;;;-2.85;100.00
35443;BME280;21561;55.654;37.592;2022-11-20T06:02:49;99594.75;;;-2.85;99.83
35443;BME280;21561;55.654;37.592;2022-11-20T06:05:16;99603.91;;;-2.89;99.82
35443;BME280;21561;55.654;37.592;2022-11-20T06:07:42;99596.91;;;-2.93;99.50
35443;BME280;21561;55.654;37.592;2022-11-20T06:10:09;99593.44;;;-2.95;99.68
35443;BME280;21561;55.654;37.592;2022-11-20T06:12:37;99595.19;;;-2.94;100.00
35443;BME280;21561;55.654;37.592;2022-11-20T06:15:05;99600.28;;;-2.94;100.00
35443;BME280;21561;55.654;37.592;2022-11-20T06:17:32;99601.88;;;-2.96;99.87
35443;BME280;21561;55.654;37.592;2022-11-20T06:19:58;99615.34;;;-2.97;100.00
35443;BME280;21561;55.654;37.592;2022-11-20T06:22:25;99619.44;;;-3.00;100.00
35443;BME280;21561;55.654;37.592;2022-11-20T06:24:52;99623.66;;;-3.01;100.00
35443;BME280;21561;55.654;37.592;2022-11-20T06:27:19;99633.06;;;-2.98;100.00
35443;BME280;21561;55.654;37.592;2022-11-20T06:29:45;99630.66;;;-2.95;100.00
35443;BME280;21561;55.654;37.592;2022-11-20T06:32:12;99629.16;;;-2.92;100.00
35443;BME280;21561;55.654;37.592;2022-11-20T06:34:39;99634.28;;;-2.90;100.00
35443;BME280;21561;55.654;37.592;2022-11-20T06:37:05;99631.75;;;-2.90;99.91
35443;BME280;21561;55.654;37.592;2022-11-20T06:39:32;99627.53;;;-2.90;99.32
35443;BME280;21561;55.654;37.592;2022-11-20T06:41:59;99627.69;;;-2.86;99.75
35443;BME280;21561;55.654;37.592;2022-11-20T06:44:25;99629.56;;;-2.82;99.86
35443;BME280;21561;55.654;37.592;2022-11-20T06:46:52;99623.78;;;-2.80;99.58
35443;BME280;21561;55.654;37.592;2022-11-20T06:49:19;99624.63;;;-2.79;99.23
35443;BME280;21561;55.654;37.592;2022-11-20T06:51:46;99619.81;;;-2.73;99.18
35443;BME280;21561;55.654;37.592;2022-11-20T06:54:13;99625.03;;;-2.70;98.57
35443;BME280;21561;55.654;37.592;2022-11-20T06:56:40;99629.13;;;-2.74;98.07
35443;BME280;21561;55.654;37.592;2022-11-20T06:59:07;99623.03;;;-2.77;98.05
35443;BME280;21561;55.654;37.592;2022-11-20T07:01:33;99631.44;;;-2.78;97.61
35443;BME280;21561;55.654;37.592;2022-11-20T07:04:01;99624.91;;;-2.73;98.00
35443;BME280;21561;55.654;37.592;2022-11-20T07:06:29;99617.28;;;-2.73;97.54
35443;BME280;21561;55.654;37.592;2022-11-20T07:08:56;99611.25;;;-2.75;97.46
35443;BME280;21561;55.654;37.592;2022-11-20T07:11:23;99620.72;;;-2.73;97.69
35443;BME280;21561;55.654;37.592;2022-11-20T07:13:50;99633.69;;;-2.66;97.60
35443;BME280;21561;55.654;37.592;2022-11-20T07:16:16;99624.53;;;-2.63;98.02
35443;BME280;21561;55.654;37.592;2022-11-20T07:18:43;99636.78;;;-2.54;96.95
35443;BME280;21561;55.654;37.592;2022-11-20T07:21:16;99639.09;;;-2.59;96.14
35443;BME280;21561;55.654;37.592;2022-11-20T07:23:43;99633.06;;;-2.61;96.61
35443;BME280;21561;55.654;37.592;2022-11-20T07:26:10;99628.00;;;-2.61;97.12
35443;BME280;21561;55.654;37.592;2022-11-20T07:28:37;99636.56;;;-2.59;96.75
35443;BME280;21561;55.654;37.592;2022-11-20T07:31:05;99640.03;;;-2.57;96.89
35443;BME280;21561;55.654;37.592;2022-11-20T07:33:33;99640.84;;;-2.58;96.31
35443;BME280;21561;55.654;37.592;2022-11-20T07:36:00;99639.25;;;-2.56;96.58
35443;BME280;21561;55.654;37.592;2022-11-20T07:38:27;99637.50;;;-2.57;96.02
35443;BME280;21561;55.654;37.592;2022-11-20T07:40:55;99647.38;;;-2.63;96.04
35443;BME280;21561;55.654;37.592;2022-11-20T07:43:23;99653.41;;;-2.61;96.37
35443;BME280;21561;55.654;37.592;2022-11-20T07:45:50;99647.31;;;-2.64;96.43
35443;BME280;21561;55.654;37.592;2022-11-20T07:48:17;99647.38;;;-2.63;97.01
35443;BME280;21561;55.654;37.592;2022-11-20T07:50:44;99659.22;;;-2.63;96.45
35443;BME280;21561;55.654;37.592;2022-11-20T07:53:11;99654.06;;;-2.65;96.37
35443;BME280;21561;55.654;37.592;2022-11-20T07:55:39;99650.72;;;-2.64;96.59
35443;BME280;21561;55.654;37.592;2022-11-20T07:58:06;99649.00;;;-2.65;96.58
35443;BME280;21561;55.654;37.592;2022-11-20T08:00:32;99652.19;;;-2.69;96.52
35443;BME280;21561;55.654;37.592;2022-11-20T08:03:03;99667.56;;;-2.66;96.93
35443;BME280;21561;55.654;37.592;2022-11-20T08:05:30;99664.09;;;-2.68;96.95
35443;BME280;21561;55.654;37.592;2022-11-20T08:07:56;99659.00;;;-2.68;96.94
35443;BME280;21561;55.654;37.592;2022-11-20T08:10:23;99657.28;;;-2.69;96.99
35443;BME280;21561;55.654;37.592;2022-11-20T08:12:52;99671.72;;;-2.68;97.06
35443;BME280;21561;55.654;37.592;2022-11-20T08:15:39;99682.88;;;-2.64;97.23
35443;BME280;21561;55.654;37.592;2022-11-20T08:18:07;99674.66;;;-2.59;97.36
35443;BME280;21561;55.654;37.592;2022-11-20T08:20:54;99664.91;;;-2.50;96.98
35443;BME280;21561;55.654;37.592;2022-11-20T08:23:22;99662.66;;;-2.43;96.95
35443;BME280;21561;55.654;37.592;2022-11-20T08:25:50;99666.94;;;-2.42;96.74
35443;BME280;21561;55.654;37.592;2022-11-20T08:28:17;99674.56;;;-2.42;96.35
35443;BME280;21561;55.654;37.592;2022-11-20T08:30:48;99679.72;;;-2.41;96.75
35443;BME280;21561;55.654;37.592;2022-11-20T08:33:15;99679.63;;;-2.42;96.41
35443;BME280;21561;55.654;37.592;2022-11-20T08:35:43;99693.69;;;-2.51;96.37
35443;BME280;21561;55.654;37.592;2022-11-20T08:38:10;99686.59;;;-2.58;96.74
35443;BME280;21561;55.654;37.592;2022-11-20T08:40:37;99679.63;;;-2.62;96.89
35443;BME280;21561;55.654;37.592;2022-11-20T08:43:04;99686.28;;;-2.64;97.23
35443;BME280;21561;55.654;37.592;2022-11-20T08:45:30;99685.16;;;-2.71;97.37
35443;BME280;21561;55.654;37.592;2022-11-20T08:48:01;99682.38;;;-2.75;97.78
35443;BME280;21561;55.654;37.592;2022-11-20T08:50:29;99689.84;;;-2.78;97.95
35443;BME280;21561;55.654;37.592;2022-11-20T08:53:04;99702.84;;;-2.72;98.18
35443;BME280;21561;55.654;37.592;2022-11-20T08:55:32;99709.22;;;-2.80;98.31
35443;BME280;21561;55.654;37.592;2022-11-20T08:58:03;99710.03;;;-2.81;98.79
35443;BME280;21561;55.654;37.592;2022-11-20T09:00:31;99723.31;;;-2.87;99.07
35443;BME280;21561;55.654;37.592;2022-11-20T09:02:59;99723.59;;;-2.81;99.16
35443;BME280;21561;55.654;37.592;2022-11-20T09:05:27;99727.81;;;-2.81;99.47
35443;BME280;21561;55.654;37.592;2022-11-20T09:07:57;99734.63;;;-2.80;99.66
35443;BME280;21561;55.654;37.592;2022-11-20T09:10:27;99734.50;;;-2.83;99.68
35443;BME280;21561;55.654;37.592;2022-11-20T09:12:54;99736.06;;;-2.85;99.64
35443;BME280;21561;55.654;37.592;2022-11-20T09:15:22;99747.81;;;-2.88;99.99
35443;BME280;21561;55.654;37.592;2022-11-20T09:17:57;99741.16;;;-2.85;100.00
35443;BME280;21561;55.654;37.592;2022-11-20T09:20:25;99746.09;;;-2.89;100.00
35443;BME280;21561;55.654;37.592;2022-11-20T09:22:53;99757.56;;;-2.79;100.00
35443;BME280;21561;55.654;37.592;2022-11-20T09:25:20;99762.78;;;-2.76;100.00
35443;BME280;21561;55.654;37.592;2022-11-20T09:27:47;99774.56;;;-2.78;100.00
35443;BME280;21561;55.654;37.592;2022-11-20T09:30:14;99769.56;;;-2.76;100.00
35443;BME280;21561;55.654;37.592;2022-11-20T09:32:42;99782.09;;;-2.79;100.00
35443;BME280;21561;55.654;37.592;2022-11-20T09:35:09;99783.63;;;-2.83;100.00
35443;BME280;21561;55.654;37.592;2022-11-20T09:37:37;99780.34;;;-2.80;100.00
35443;BME280;21561;55.654;37.592;2022-11-20T09:40:04;99783.81;;;-2.78;100.00
35443;BME280;21561;55.654;37.592;2022-11-20T09:42:41;99777.31;;;-2.73;100.00
35443;BME280;21561;55.654;37.592;2022-11-20T09:51:29;99771.50;;;-2.35;100.00
35443;BME280;21561;55.654;37.592;2022-11-20T09:54:19;99770.72;;;-2.14;100.00
35443;BME280;21561;55.654;37.592;2022-11-20T09:56:53;99775.53;;;-2.02;100.00
35443;BME280;21561;55.654;37.592;2022-11-20T10:01:59;99779.16;;;-1.97;100.00
35443;BME280;21561;55.654;37.592;2022-11-20T10:04:29;99782.72;;;-1.92;100.00
35443;BME280;21561;55.654;37.592;2022-11-20T10:10:26;99792.44;;;-2.21;100.00
35443;BME280;21561;55.654;37.592;2022-11-20T10:20:50;99796.91;;;-2.17;100.00
35443;BME280;21561;55.654;37.592;2022-11-20T10:23:39;99806.66;;;-2.26;99.92
35443;BME280;21561;55.654;37.592;2022-11-20T10:26:42;99798.56;;;-2.35;100.00
35443;BME280;21561;55.654;37.592;2022-11-20T10:29:16;99798.28;;;-2.41;100.00
35443;BME280;21561;55.654;37.592;2022-11-20T10:31:48;99799.22;;;-2.39;100.00
35443;BME280;21561;55.654;37.592;2022-11-20T10:37:13;99798.34;;;-2.22;100.00
35443;BME280;21561;55.654;37.592;2022-11-20T10:42:16;99807.75;;;-2.01;100.00
35443;BME280;21561;55.654;37.592;2022-11-20T10:44:51;99804.97;;;-1.88;100.00
35443;BME280;21561;55.654;37.592;2022-11-20T10:47:31;99791.25;;;-1.92;98.87
35443;BME280;21561;55.654;37.592;2022-11-20T10:50:04;99804.84;;;-1.91;98.33
35443;BME280;21561;55.654;37.592;2022-11-20T11:00:37;99818.50;;;-1.89;95.98
35443;BME280;21561;55.654;37.592;2022-11-20T11:03:27;99806.63;;;-2.08;96.82
35443;BME280;21561;55.654;37.592;2022-11-20T11:06:03;99822.31;;;-2.17;98.01
35443;BME280;21561;55.654;37.592;2022-11-20T11:08:36;99832.06;;;-2.26;98.69
35443;BME280;21561;55.654;37.592;2022-11-20T11:11:21;99834.53;;;-2.09;98.42
35443;BME280;21561;55.654;37.592;2022-11-20T11:13:50;99832.41;;;-2.00;99.79
35443;BME280;21561;55.654;37.592;2022-11-20T11:16:24;99835.97;;;-1.97;97.76
35443;BME280;21561;55.654;37.592;2022-11-20T11:19:02;99830.56;;;-2.03;97.74
35443;BME280;21561;55.654;37.592;2022-11-20T11:21:30;99839.03;;;-2.22;96.93
35443;BME280;21561;55.654;37.592;2022-11-20T11:23:59;99836.84;;;-2.14;99.82
35443;BME280;21561;55.654;37.592;2022-11-20T11:27:13;99836.41;;;-2.05;97.76
35443;BME280;21561;55.654;37.592;2022-11-20T11:29:43;99841.63;;;-2.02;97.47
35443;BME280;21561;55.654;37.592;2022-11-20T11:32:17;99836.53;;;-2.02;94.41
35443;BME280;21561;55.654;37.592;2022-11-20T11:34:44;99835.97;;;-2.15;93.96
35443;BME280;21561;55.654;37.592;2022-11-20T11:37:19;99832.91;;;-2.07;95.14
35443;BME280;21561;55.654;37.592;2022-11-20T11:39:48;99848.78;;;-2.31;92.56
35443;BME280;21561;55.654;37.592;2022-11-20T11:42:35;99841.06;;;-2.51;93.38
35443;BME280;21561;55.654;37.592;2022-11-20T11:45:14;99843.94;;;-2.61;93.98
35443;BME280;21561;55.654;37.592;2022-11-20T11:47:46;99840.03;;;-2.72;94.75
35443;BME280;21561;55.654;37.592;2022-11-20T11:50:17;99841.91;;;-2.68;95.32
35443;BME280;21561;55.654;37.592;2022-11-20T12:01:00;99856.03;;;-2.73;95.38
35443;BME280;21561;55.654;37.592;2022-11-20T12:03:39;99852.16;;;-2.66;95.15
35443;BME280;21561;55.654;37.592;2022-11-20T12:06:13;99860.50;;;-2.69;94.38
35443;BME280;21561;55.654;37.592;2022-11-20T12:09:08;99864.13;;;-2.64;94.17
35443;BME280;21561;55.654;37.592;2022-11-20T12:11:55;99861.03;;;-2.58;94.19
35443;BME280;21561;55.654;37.592;2022-11-20T12:14:46;99860.28;;;-2.56;93.74
35443;BME280;21561;55.654;37.592;2022-11-20T12:17:16;99860.22;;;-2.57;93.53
35443;BME280;21561;55.654;37.592;2022-11-20T12:19:44;99862.66;;;-2.59;92.75
35443;BME280;21561;55.654;37.592;2022-11-20T12:25:00;99857.47;;;-2.62;91.97
35443;BME280;21561;55.654;37.592;2022-11-20T12:27:47;99851.19;;;-2.69;90.69
35443;BME280;21561;55.654;37.592;2022-11-20T12:30:19;99848.13;;;-2.79;91.31
35443;BME280;21561;55.654;37.592;2022-11-20T12:50:39;99844.88;;;-2.59;92.30
35443;BME280;21561;55.654;37.592;2022-11-20T13:04:55;99868.50;;;-1.52;95.76
35443;BME280;21561;55.654;37.592;2022-11-20T13:07:30;99864.06;;;-0.57;86.54
35443;BME280;21561;55.654;37.592;2022-11-20T13:09:58;99861.09;;;0.19;88.36
35443;BME280;21561;55.654;37.592;2022-11-20T13:12:31;99866.38;;;0.47;81.07
35443;BME280;21561;55.654;37.592;2022-11-20T13:17:47;99855.41;;;0.49;79.95
35443;BME280;21561;55.654;37.592;2022-11-20T13:20:19;99862.34;;;-0.14;80.35
35443;BME280;21561;55.654;37.592;2022-11-20T13:22:54;99868.19;;;-0.80;83.95
35443;BME280;21561;55.654;37.592;2022-11-20T13:25:25;99879.34;;;-0.98;83.87
35443;BME280;21561;55.654;37.592;2022-11-20T13:27:52;99887.13;;;-1.33;85.52
35443;BME280;21561;55.654;37.592;2022-11-20T13:30:22;99890.28;;;-1.20;85.64
35443;BME280;21561;55.654;37.592;2022-11-20T13:33:09;99885.19;;;-1.00;85.29
35443;BME280;21561;55.654;37.592;2022-11-20T13:38:27;99888.94;;;-0.51;81.22
35443;BME280;21561;55.654;37.592;2022-11-20T13:41:01;99882.78;;;0.08;81.17
35443;BME280;21561;55.654;37.592;2022-11-20T13:43:48;99878.50;;;0.30;80.13
35443;BME280;21561;55.654;37.592;2022-11-20T13:46:15;99884.28;;;0.48;78.08
35443;BME280;21561;55.654;37.592;2022-11-20T13:48:46;99892.06;;;0.06;76.79
35443;BME280;21561;55.654;37.592;2022-11-20T14:02:59;99899.53;;;-1.97;85.29
35443;BME280;21561;55.654;37.592;2022-11-20T14:05:28;99898.59;;;-2.17;86.70
35443;BME280;21561;55.654;37.592;2022-11-20T14:07:57;99900.19;;;-2.19;86.67
35443;BME280;21561;55.654;37.592;2022-11-20T14:10:27;99897.69;;;-2.17;86.73
35443;BME280;21561;55.654;37.592;2022-11-20T14:12:58;99906.56;;;-2.27;87.13
35443;BME280;21561;55.654;37.592;2022-11-20T14:15:33;99915.56;;;-2.34;87.37
35443;BME280;21561;55.654;37.592;2022-11-20T14:18:14;99919.69;;;-2.36;87.91
35443;BME280;21561;55.654;37.592;2022-11-20T14:20:41;99929.34;;;-2.46;87.92
35443;BME280;21561;55.654;37.592;2022-11-20T14:23:10;99925.63;;;-2.53;88.08
35443;BME280;21561;55.654;37.592;2022-11-20T14:25:38;99931.34;;;-2.57;88.24
35443;BME280;21561;55.654;37.592;2022-11-20T14:28:20;99919.91;;;-2.49;88.53
35443;BME280;21561;55.654;37.592;2022-11-20T14:30:49;99916.47;;;-2.50;88.38
35443;BME280;21561;55.654;37.592;2022-11-20T14:33:16;99931.09;;;-2.45;88.32
35443;BME280;21561;55.654;37.592;2022-11-20T14:35:48;99937.22;;;-2.42;88.35
35443;BME280;21561;55.654;37.592;2022-11-20T14:38:18;99937.03;;;-2.45;88.44
35443;BME280;21561;55.654;37.592;2022-11-20T14:40:46;99944.44;;;-2.50;88.41
35443;BME280;21561;55.654;37.592;2022-11-20T14:43:27;99949.91;;;-2.42;88.59